Time;durP1;ratioP1;P1;durP2;ratioP2;P2;SDS_P1;SDS_P2;PMS_P1;PMS_P2;Temp;Humidity;BMP_temperature;BMP_pressure;BME280_temperature;BME280_humidity;BME280_pressure;Samples;Min_cycle;Max_cycle;Signal;HPM_P1;HPM_P2
2021/01/31 00:02:04;;;;;;;7.25;6.40;;;;;;;1.92;95.69;97090.25;4871439;29;20021;-68
2021/01/31 00:04:29;;;;;;;6.97;6.07;;;;;;;1.87;96.14;97096.25;4883578;29;20496;-67
2021/01/31 00:06:56;;;;;;;10.90;7.10;;;;;;;1.88;96.05;97101.34;4866757;29;20160;-67
2021/01/31 00:09:21;;;;;;;7.03;6.32;;;;;;;1.84;94.67;97104.81;4867543;29;20017;-67
2021/01/31 00:11:47;;;;;;;10.30;6.75;;;;;;;1.89;95.59;97102.22;4875427;29;20104;-68
2021/01/31 00:14:12;;;;;;;8.75;6.43;;;;;;;1.94;95.72;97108.13;4874432;29;20049;-68
2021/01/31 00:16:37;;;;;;;7.80;7.03;;;;;;;1.91;95.74;97097.94;4874962;29;20021;-67
2021/01/31 00:19:03;;;;;;;7.18;6.47;;;;;;;1.90;94.92;97101.34;4875403;29;20471;-67
2021/01/31 00:21:28;;;;;;;8.25;6.85;;;;;;;1.89;94.98;97109.88;4875154;29;20029;-67
2021/01/31 00:23:53;;;;;;;8.00;6.93;;;;;;;1.86;95.60;97115.84;4875706;29;20037;-67
2021/01/31 00:26:19;;;;;;;8.15;6.63;;;;;;;1.85;95.27;97116.72;4879481;29;20100;-67
2021/01/31 00:28:44;;;;;;;8.18;6.82;;;;;;;1.85;94.73;97113.31;4880774;29;20051;-68
2021/01/31 00:31:09;;;;;;;8.30;7.50;;;;;;;1.83;95.23;97109.91;4879710;29;20021;-67
2021/01/31 00:33:35;;;;;;;7.35;6.65;;;;;;;1.81;95.17;97115.06;4880062;29;20045;-68
2021/01/31 00:36:00;;;;;;;6.65;5.88;;;;;;;1.77;94.29;97116.78;4891557;29;20025;-68
2021/01/31 00:38:27;;;;;;;8.73;7.03;;;;;;;1.76;94.62;97115.09;4899184;29;20033;-68
2021/01/31 00:40:54;;;;;;;7.68;6.63;;;;;;;1.72;94.48;97110.88;4898939;29;20505;-68
2021/01/31 00:43:19;;;;;;;7.90;6.95;;;;;;;1.72;94.98;97118.53;4898877;29;20402;-68
2021/01/31 00:45:45;;;;;;;9.00;8.07;;;;;;;1.68;95.12;97116.88;4893598;29;20062;-68
2021/01/31 00:48:11;;;;;;;9.02;7.80;;;;;;;1.72;95.75;97118.53;4892225;29;20549;-68
2021/01/31 00:50:39;;;;;;;10.23;7.40;;;;;;;1.68;95.51;97119.41;4898680;29;20039;-68
2021/01/31 00:53:06;;;;;;;7.97;7.18;;;;;;;1.68;95.39;97116.03;4898752;29;20043;-68
2021/01/31 00:55:31;;;;;;;10.00;7.80;;;;;;;1.64;95.17;97125.41;4898680;29;20086;-68
2021/01/31 00:57:56;;;;;;;9.88;8.02;;;;;;;1.62;95.57;97119.50;4898641;29;20056;-68
2021/01/31 08:00:19;;;;;;;10.85;9.13;;;;;;;1.86;89.67;97370.34;5974117;23;20058;-71
2021/01/31 08:02:55;;;;;;;;;;;;;;;1.78;89.73;97362.72;4918217;29;20076;-72
2021/01/31 08:05:51;;;;;;;12.50;9.23;;;;;;;1.71;89.37;97363.63;4918552;29;19911;-73
2021/01/31 08:08:38;;;;;;;11.05;9.20;;;;;;;1.78;89.26;97363.56;4917241;29;20036;-72
2021/01/31 08:11:08;;;;;;;14.10;9.02;;;;;;;1.90;89.21;97372.03;4917236;29;20384;-72
2021/01/31 08:13:47;;;;;;;12.55;8.98;;;;;;;1.94;89.25;97374.56;4918304;29;20031;-71
2021/01/31 08:16:38;;;;;;;9.40;8.13;;;;;;;1.91;87.67;97368.63;4923727;29;20030;-68
2021/01/31 08:19:09;;;;;;;9.05;8.07;;;;;;;1.73;87.92;97362.75;4899441;29;20028;-67
2021/01/31 08:21:55;;;;;;;10.07;8.00;;;;;;;1.74;88.32;97369.59;4899158;29;20032;-68
2021/01/31 08:24:59;;;;;;;9.48;7.53;;;;;;;1.86;88.73;97370.34;4899313;29;20487;-68
2021/01/31 08:27:42;;;;;;;10.38;8.43;;;;;;;1.93;88.25;97372.00;4899372;29;20063;-68
2021/01/31 08:30:32;;;;;;;9.15;7.30;;;;;;;1.89;87.13;97370.34;4899100;29;20029;-67
2021/01/31 08:32:57;;;;;;;;;;;;;;;1.90;87.99;97356.72;4896553;29;20040;-67
2021/01/31 08:35:26;;;;;;;11.47;7.73;;;;;;;1.92;87.92;97365.19;4899264;29;20333;-67
2021/01/31 08:38:24;;;;;;;8.57;7.10;;;;;;;2.06;87.87;97360.84;4899217;29;20312;-68
2021/01/31 08:41:27;;;;;;;10.18;8.45;;;;;;;2.02;87.14;97366.81;4898831;29;20032;-67
2021/01/31 08:44:10;;;;;;;10.70;7.80;;;;;;;2.04;87.25;97370.25;4898965;29;20486;-68
2021/01/31 08:46:53;;;;;;;8.85;7.75;;;;;;;1.99;87.60;97379.63;4922200;29;20115;-68
2021/01/31 08:49:18;;;;;;;10.07;8.23;;;;;;;1.96;87.63;97379.66;4898915;29;20028;-68
2021/01/31 08:51:54;;;;;;;10.00;8.55;;;;;;;2.20;87.69;97378.63;4898666;29;20058;-68
2021/01/31 08:54:21;;;;;;;9.93;7.70;;;;;;;2.10;87.26;97380.41;4898795;29;20047;-68
2021/01/31 08:56:55;;;;;;;10.85;8.43;;;;;;;2.05;87.67;97371.94;4898846;29;20036;-67
2021/01/31 08:59:20;;;;;;;12.88;8.15;;;;;;;2.11;87.32;97376.97;4898656;29;20443;-68
2021/01/31 09:01:49;;;;;;;8.57;7.72;;;;;;;2.17;86.67;97379.50;4898365;29;20040;-68
2021/01/31 09:04:20;;;;;;;8.18;7.38;;;;;;;2.21;86.82;97386.28;4898590;29;20028;-68
2021/01/31 09:06:48;;;;;;;8.40;7.40;;;;;;;2.05;86.32;97392.38;4897548;29;20405;-68
2021/01/31 09:09:23;;;;;;;9.87;7.67;;;;;;;2.11;87.20;97392.31;4898479;29;20054;-67
2021/01/31 09:11:53;;;;;;;9.63;8.30;;;;;;;2.15;87.49;97391.44;4898368;29;20812;-68
2021/01/31 09:14:24;;;;;;;8.90;8.00;;;;;;;2.03;87.00;97394.94;4900415;29;20116;-68
2021/01/31 09:16:49;;;;;;;12.00;8.88;;;;;;;2.11;87.22;97394.88;4926687;29;20099;-67
2021/01/31 09:19:24;;;;;;;9.63;8.38;;;;;;;2.16;87.68;97395.69;4936265;29;20035;-68
2021/01/31 09:21:53;;;;;;;8.98;7.80;;;;;;;2.29;87.64;97397.28;4936002;29;20073;-68
2021/01/31 09:24:20;;;;;;;9.52;8.18;;;;;;;2.23;86.68;97394.78;4935994;29;20039;-68
2021/01/31 09:26:55;;;;;;;9.80;8.10;;;;;;;2.24;87.27;97398.19;4936050;29;20094;-68
2021/01/31 09:29:27;;;;;;;9.40;8.43;;;;;;;2.35;86.29;97411.72;4936036;29;20110;-68
2021/01/31 09:31:56;;;;;;;11.27;9.23;;;;;;;2.29;86.63;97417.75;4935722;29;20512;-68
2021/01/31 09:34:26;;;;;;;11.02;9.15;;;;;;;2.19;86.99;97411.00;4935905;29;20027;-69
2021/01/31 09:37:09;;;;;;;9.82;8.55;;;;;;;2.26;86.10;97407.53;4935795;29;20066;-68
2021/01/31 09:39:37;;;;;;;12.73;9.05;;;;;;;2.26;86.89;97415.19;4901941;29;20498;-68
2021/01/31 09:42:04;;;;;;;12.13;9.48;;;;;;;2.34;86.76;97422.81;4896723;29;20489;-68
2021/01/31 09:44:31;;;;;;;9.32;8.38;;;;;;;2.38;86.93;97421.09;4894243;29;20044;-68
2021/01/31 09:46:57;;;;;;;9.88;8.48;;;;;;;2.39;86.34;97415.13;4896802;29;20036;-68
2021/01/31 09:49:27;;;;;;;11.15;8.90;;;;;;;2.41;86.77;97421.06;4909838;29;20393;-68
2021/01/31 09:51:53;;;;;;;11.68;9.20;;;;;;;2.34;86.76;97419.41;4896039;29;20055;-68
2021/01/31 09:54:30;;;;;;;12.77;9.60;;;;;;;2.45;86.04;97422.72;4895086;29;20093;-68
2021/01/31 09:56:58;;;;;;;11.15;8.98;;;;;;;2.57;86.66;97422.66;4894272;29;20035;-68
2021/01/31 09:59:29;;;;;;;10.80;8.45;;;;;;;2.65;85.30;97417.44;4896087;29;20071;-68
2021/01/31 10:02:11;;;;;;;10.75;8.93;;;;;;;2.36;85.90;97425.34;4894961;29;20047;-68
2021/01/31 10:04:41;;;;;;;10.30;9.20;;;;;;;2.24;85.76;97428.84;4894933;29;20028;-68
2021/01/31 10:07:09;;;;;;;10.52;8.85;;;;;;;2.26;86.33;97424.56;4895449;29;20107;-68
2021/01/31 10:09:50;;;;;;;11.00;9.38;;;;;;;2.34;85.87;97429.63;4896115;29;20099;-69
2021/01/31 10:12:23;;;;;;;12.20;9.10;;;;;;;2.45;86.02;97428.69;4895989;29;20036;-69
2021/01/31 10:14:51;;;;;;;13.05;8.93;;;;;;;2.48;85.65;97427.84;4888472;29;20056;-68
2021/01/31 10:17:19;;;;;;;10.02;8.50;;;;;;;2.59;85.52;97426.03;4887342;29;20033;-69
2021/01/31 10:19:45;;;;;;;10.77;9.32;;;;;;;2.65;85.16;97423.41;4887144;29;20036;-68
2021/01/31 10:22:19;;;;;;;11.40;8.95;;;;;;;2.43;85.04;97415.09;4902516;28;20659;-68
2021/01/31 10:24:46;;;;;;;13.40;10.50;;;;;;;2.20;85.65;97397.34;4887462;29;20091;-68
2021/01/31 10:27:27;;;;;;;13.10;9.82;;;;;;;2.33;85.96;97397.28;4882244;29;20436;-68
2021/01/31 10:29:55;;;;;;;11.48;9.82;;;;;;;2.37;85.03;97393.81;4881382;29;20038;-68
2021/01/31 10:32:25;;;;;;;14.90;10.50;;;;;;;2.58;84.99;97393.66;4879571;29;20039;-68
2021/01/31 10:34:53;;;;;;;12.70;10.10;;;;;;;2.47;84.38;97387.81;4880465;29;20055;-68
2021/01/31 10:37:39;;;;;;;12.98;9.77;;;;;;;2.53;84.42;97380.06;4881076;29;20028;-68
2021/01/31 10:40:06;;;;;;;14.25;9.70;;;;;;;2.36;84.57;97387.03;4879168;29;20051;-68
2021/01/31 10:42:31;;;;;;;12.00;10.02;;;;;;;2.48;84.30;97377.56;4880910;29;20091;-68
2021/01/31 10:45:12;;;;;;;16.42;10.35;;;;;;;2.76;84.47;97378.16;4887375;29;20091;-68
2021/01/31 10:47:37;;;;;;;14.57;10.75;;;;;;;2.84;83.19;97381.47;4889525;29;20063;-68
2021/01/31 10:50:06;;;;;;;14.40;10.82;;;;;;;2.77;83.25;97384.94;4889074;29;20031;-68
2021/01/31 10:52:33;;;;;;;15.25;10.48;;;;;;;2.71;83.71;97390.13;4889753;29;20037;-68
2021/01/31 10:54:58;;;;;;;13.90;9.98;;;;;;;2.69;83.91;97396.09;4890074;29;20088;-68
2021/01/31 10:57:24;;;;;;;13.68;10.02;;;;;;;2.55;84.16;97401.34;4900665;29;20419;-68
2021/01/31 10:59:49;;;;;;;13.02;9.65;;;;;;;2.77;84.14;97400.28;4898930;29;20032;-68
2021/01/31 11:02:14;;;;;;;15.35;10.50;;;;;;;2.90;83.27;97402.72;4896951;29;20164;-68
2021/01/31 11:04:40;;;;;;;13.82;10.20;;;;;;;3.01;82.86;97396.66;4904389;29;20127;-68
2021/01/31 11:07:05;;;;;;;13.88;10.35;;;;;;;3.01;83.36;97399.22;4902925;29;20032;-68
2021/01/31 11:09:30;;;;;;;13.13;9.80;;;;;;;2.83;83.33;97395.13;4898070;29;20032;-68
2021/01/31 11:11:56;;;;;;;12.35;9.32;;;;;;;2.80;83.69;97390.06;4898692;29;20519;-68
2021/01/31 11:14:21;;;;;;;14.25;10.43;;;;;;;2.69;83.82;97396.97;4899220;29;20032;-68
2021/01/31 11:16:47;;;;;;;14.05;10.90;;;;;;;2.84;84.15;97386.56;4899051;29;20044;-68
2021/01/31 11:19:12;;;;;;;14.27;10.95;;;;;;;2.79;83.48;97390.88;4913079;28;20399;-68
2021/01/31 11:21:37;;;;;;;13.95;10.02;;;;;;;2.80;84.07;97384.94;4898851;29;20123;-68
2021/01/31 11:24:04;;;;;;;14.77;10.70;;;;;;;2.79;83.26;97383.22;4898954;29;20035;-68
2021/01/31 11:26:29;;;;;;;12.63;9.68;;;;;;;2.88;83.47;97377.16;4898051;29;20119;-68
2021/01/31 11:28:55;;;;;;;13.57;10.57;;;;;;;2.98;82.67;97372.81;4898413;29;20179;-68
2021/01/31 11:31:23;;;;;;;13.85;10.35;;;;;;;3.22;82.77;97372.53;4898348;29;20364;-68
2021/01/31 11:33:50;;;;;;;14.30;9.95;;;;;;;3.48;81.68;97379.91;4899006;29;20490;-68
2021/01/31 11:36:16;;;;;;;12.20;9.68;;;;;;;3.75;80.79;97363.31;4897737;29;20044;-69
2021/01/31 11:38:41;;;;;;;13.98;10.20;;;;;;;3.98;79.79;97370.69;4898005;29;20129;-68
2021/01/31 11:41:06;;;;;;;13.95;10.15;;;;;;;3.99;79.29;97371.53;4896863;29;20083;-68
2021/01/31 11:43:32;;;;;;;12.68;9.00;;;;;;;4.19;79.13;97374.63;4898309;29;20397;-68
2021/01/31 11:45:57;;;;;;;12.95;8.85;;;;;;;4.11;77.87;97384.19;4898037;29;20044;-68
2021/01/31 11:48:22;;;;;;;12.52;9.57;;;;;;;3.55;78.59;97378.13;4898291;29;20036;-68
2021/01/31 11:50:48;;;;;;;11.48;8.25;;;;;;;3.62;79.40;97382.28;4898095;29;20092;-68
2021/01/31 11:53:14;;;;;;;11.70;9.00;;;;;;;3.52;79.19;97378.13;4898637;29;20642;-68
2021/01/31 11:55:40;;;;;;;11.27;9.15;;;;;;;3.56;78.85;97375.53;4898582;29;20035;-68
2021/01/31 11:58:05;;;;;;;13.55;9.25;;;;;;;3.71;79.39;97381.31;4897822;29;20028;-68
2021/01/31 12:00:31;;;;;;;13.65;9.70;;;;;;;3.50;78.50;97382.44;4897163;29;20040;-68
2021/01/31 12:02:56;;;;;;;12.35;9.02;;;;;;;3.57;78.95;97371.25;4897918;29;20973;-68
2021/01/31 12:05:25;;;;;;;13.10;9.27;;;;;;;3.40;79.34;97380.88;4897539;29;20116;-68
2021/01/31 12:07:51;;;;;;;16.67;10.40;;;;;;;3.56;80.67;97377.25;4896447;29;20397;-68
2021/01/31 12:10:17;;;;;;;14.40;9.52;;;;;;;3.57;80.36;97368.69;4897211;29;20034;-68
2021/01/31 12:12:43;;;;;;;12.93;9.20;;;;;;;3.73;79.01;97357.38;4898096;29;20454;-68
2021/01/31 12:15:10;;;;;;;19.58;12.80;;;;;;;3.71;79.79;97355.69;4898125;29;20029;-68
2021/01/31 12:17:35;;;;;;;18.20;12.30;;;;;;;3.88;79.57;97347.78;4897669;29;20096;-68
2021/01/31 12:20:02;;;;;;;16.15;10.02;;;;;;;3.91;78.64;97348.56;4897916;29;20040;-68
2021/01/31 12:22:27;;;;;;;12.52;8.98;;;;;;;3.78;78.04;97336.84;4897591;29;20039;-68
2021/01/31 12:24:53;;;;;;;13.30;9.60;;;;;;;3.46;78.43;97337.25;4898028;29;20032;-68
2021/01/31 12:27:20;;;;;;;12.98;9.68;;;;;;;3.74;78.91;97338.59;4897700;29;20043;-68
2021/01/31 12:29:47;;;;;;;13.98;10.20;;;;;;;3.54;78.21;97332.91;4898014;29;20035;-68
2021/01/31 12:32:13;;;;;;;14.30;9.20;;;;;;;3.71;78.75;97320.69;4896847;29;20028;-68
2021/01/31 12:34:38;;;;;;;14.25;9.38;;;;;;;3.66;78.62;97322.47;4897283;29;20508;-69
2021/01/31 12:37:03;;;;;;;12.02;8.77;;;;;;;4.08;78.22;97325.28;4897054;29;20401;-68
2021/01/31 12:39:29;;;;;;;12.65;9.70;;;;;;;4.11;76.41;97314.97;4897468;29;20445;-68
2021/01/31 12:41:54;;;;;;;13.65;9.13;;;;;;;4.26;76.60;97314.72;4896538;29;20032;-68
2021/01/31 12:44:19;;;;;;;14.35;9.55;;;;;;;4.14;77.18;97307.22;4911850;29;20191;-68
2021/01/31 12:46:45;;;;;;;11.88;9.07;;;;;;;4.13;77.13;97308.09;4897669;29;20159;-68
2021/01/31 12:49:10;;;;;;;12.13;9.40;;;;;;;4.18;77.00;97300.34;4897760;29;20044;-68
2021/01/31 12:51:36;;;;;;;13.10;9.18;;;;;;;4.06;77.59;97304.81;4897100;29;20076;-68
2021/01/31 12:54:01;;;;;;;15.13;9.73;;;;;;;4.11;77.02;97309.84;4897361;29;20032;-68
2021/01/31 12:56:26;;;;;;;13.98;10.38;;;;;;;3.96;78.68;97316.03;4897538;29;21517;-68
2021/01/31 12:58:52;;;;;;;12.55;8.98;;;;;;;3.83;78.36;97305.16;4896914;29;20043;-68
2021/01/31 13:01:17;;;;;;;12.63;9.10;;;;;;;3.95;78.18;97308.38;4896465;29;20030;-68
2021/01/31 13:03:42;;;;;;;11.50;8.52;;;;;;;3.82;78.57;97310.28;4897277;29;20112;-68
2021/01/31 13:06:08;;;;;;;14.70;9.93;;;;;;;3.69;78.56;97298.53;4896962;29;20024;-68
2021/01/31 13:08:33;;;;;;;15.75;10.70;;;;;;;3.93;79.08;97299.88;4896550;29;20549;-68
2021/01/31 13:10:58;;;;;;;14.85;10.43;;;;;;;3.75;79.28;97299.28;4896523;29;20032;-68
2021/01/31 13:13:24;;;;;;;13.48;9.70;;;;;;;3.56;78.94;97300.41;4896913;29;20533;-68
2021/01/31 13:15:49;;;;;;;14.85;10.15;;;;;;;3.37;79.41;97296.41;4896939;29;20494;-68
2021/01/31 13:18:14;;;;;;;12.73;9.88;;;;;;;3.33;79.21;97285.38;4895776;29;20037;-67
2021/01/31 13:20:40;;;;;;;12.60;9.63;;;;;;;3.50;79.62;97285.16;4895353;29;20037;-68
2021/01/31 13:23:05;;;;;;;15.73;10.82;;;;;;;3.67;79.00;97279.78;4896878;29;20111;-68
2021/01/31 13:25:30;;;;;;;13.95;10.50;;;;;;;3.69;78.98;97275.50;4895874;29;20037;-68
2021/01/31 13:27:58;;;;;;;14.05;10.32;;;;;;;3.50;79.20;97280.03;4896499;29;20106;-68
2021/01/31 13:30:24;;;;;;;22.52;12.88;;;;;;;3.45;79.38;97277.53;4896254;29;20062;-68
2021/01/31 13:32:50;;;;;;;16.67;11.27;;;;;;;3.43;79.54;97275.84;4895593;29;20524;-68
2021/01/31 13:35:19;;;;;;;14.88;10.52;;;;;;;3.56;79.35;97279.94;4896677;29;20031;-68
2021/01/31 13:37:44;;;;;;;14.60;10.18;;;;;;;3.52;79.56;97278.28;4910344;29;20375;-68
2021/01/31 13:40:10;;;;;;;14.70;10.95;;;;;;;3.35;79.67;97273.41;4896482;29;20051;-68
2021/01/31 13:42:36;;;;;;;14.45;10.98;;;;;;;3.31;80.01;97272.59;4895103;29;20047;-68
2021/01/31 13:45:04;;;;;;;14.98;11.05;;;;;;;3.41;80.34;97272.47;4896330;29;20028;-68
2021/01/31 13:47:29;;;;;;;19.13;11.02;;;;;;;3.55;80.20;97273.13;4891465;29;20037;-68
2021/01/31 13:49:54;;;;;;;16.38;11.02;;;;;;;3.42;79.91;97272.44;4888266;29;20031;-68
2021/01/31 13:52:20;;;;;;;16.45;11.63;;;;;;;3.35;80.88;97268.28;4888635;29;20525;-69
2021/01/31 13:54:49;;;;;;;14.50;11.13;;;;;;;3.39;81.00;97269.09;4887908;29;20033;-68
2021/01/31 13:57:15;;;;;;;19.13;12.60;;;;;;;3.41;80.18;97269.91;4894028;29;20111;-68
2021/01/31 13:59:41;;;;;;;22.15;13.00;;;;;;;3.58;80.56;97265.41;4888195;29;20036;-68
2021/01/31 14:02:06;;;;;;;18.52;11.23;;;;;;;3.48;80.08;97258.72;4883336;29;20025;-68
2021/01/31 14:04:31;;;;;;;17.42;11.40;;;;;;;3.44;80.29;97254.53;4881805;29;20078;-68
2021/01/31 14:06:57;;;;;;;16.00;10.88;;;;;;;3.61;80.11;97253.38;4878999;29;20042;-68
2021/01/31 14:09:23;;;;;;;18.75;10.60;;;;;;;3.57;80.25;97251.75;4880592;29;20646;-68
2021/01/31 14:11:48;;;;;;;15.90;10.55;;;;;;;3.68;80.65;97254.16;4880595;29;20059;-68
2021/01/31 14:14:13;;;;;;;14.55;10.50;;;;;;;3.47;79.95;97251.91;4880820;29;20590;-68
2021/01/31 14:16:39;;;;;;;16.13;10.90;;;;;;;3.24;80.72;97253.09;4885869;29;20029;-75
2021/01/31 14:19:04;;;;;;;18.10;10.52;;;;;;;3.15;81.08;97245.53;4889670;29;20095;-74
2021/01/31 14:21:33;;;;;;;14.82;10.50;;;;;;;3.13;81.56;97243.84;4890048;29;20035;-75
2021/01/31 14:23:58;;;;;;;19.52;11.85;;;;;;;3.06;81.90;97237.97;4889576;29;20027;-75
2021/01/31 14:26:23;;;;;;;15.63;11.38;;;;;;;3.17;82.27;97231.00;4889737;29;20039;-75
2021/01/31 14:28:49;;;;;;;15.10;10.65;;;;;;;3.28;82.79;97238.50;4890371;29;20032;-74
2021/01/31 14:31:16;;;;;;;16.25;11.77;;;;;;;3.30;82.09;97237.63;4890919;29;20039;-74
2021/01/31 14:33:41;;;;;;;15.32;11.30;;;;;;;3.27;82.38;97231.72;4904281;29;20032;-74
2021/01/31 14:36:06;;;;;;;16.13;11.05;;;;;;;3.09;83.19;97225.13;4894531;29;20039;-74
2021/01/31 14:38:32;;;;;;;17.92;11.98;;;;;;;3.21;83.71;97212.19;4895671;29;20072;-74
2021/01/31 14:40:57;;;;;;;17.65;12.13;;;;;;;3.17;84.35;97215.63;4895070;29;20513;-74
2021/01/31 14:43:22;;;;;;;20.00;12.43;;;;;;;3.16;84.33;97216.50;4895322;29;20040;-74
2021/01/31 14:45:48;;;;;;;16.80;11.88;;;;;;;3.02;84.08;97210.72;4894552;29;20189;-74
2021/01/31 14:48:13;;;;;;;19.58;12.65;;;;;;;2.99;84.38;97208.22;4895878;29;20037;-74
2021/01/31 14:50:38;;;;;;;19.60;11.82;;;;;;;3.09;84.54;97207.22;4895268;29;20036;-74
2021/01/31 14:53:04;;;;;;;20.00;11.82;;;;;;;3.08;84.13;97206.38;4894316;29;20128;-74
2021/01/31 14:55:33;;;;;;;17.67;11.73;;;;;;;3.04;83.98;97214.09;4894395;29;20028;-74
2021/01/31 14:57:58;;;;;;;17.48;12.02;;;;;;;3.09;83.85;97202.09;4895421;29;20562;-74
2021/01/31 15:00:28;;;;;;;18.60;12.68;;;;;;;3.05;84.33;97201.31;4895305;29;20043;-74
2021/01/31 15:02:53;;;;;;;17.27;12.07;;;;;;;3.17;83.85;97202.00;4894824;29;20039;-74
2021/01/31 15:05:19;;;;;;;16.23;11.80;;;;;;;2.99;83.22;97195.41;4895194;29;20041;-69
2021/01/31 15:07:45;;;;;;;16.83;11.60;;;;;;;3.06;84.06;97191.91;4895376;29;20029;-71
2021/01/31 15:10:11;;;;;;;17.80;12.25;;;;;;;3.11;83.58;97195.25;4895362;29;20032;-70
2021/01/31 15:12:37;;;;;;;16.63;11.98;;;;;;;3.15;82.84;97196.06;4895296;29;20503;-74
2021/01/31 15:15:04;;;;;;;16.52;10.90;;;;;;;2.98;82.86;97198.84;4894901;29;20035;-73
2021/01/31 15:17:30;;;;;;;16.00;11.65;;;;;;;2.97;83.19;97199.72;4895964;29;20035;-68
2021/01/31 15:19:55;;;;;;;16.77;11.52;;;;;;;2.99;83.99;97200.53;4895228;29;20036;-68
2021/01/31 15:22:20;;;;;;;20.50;11.48;;;;;;;2.96;83.26;97205.72;4895762;29;20034;-70
2021/01/31 15:24:46;;;;;;;17.27;11.18;;;;;;;2.98;82.94;97209.91;4895168;29;20078;-72
2021/01/31 15:27:11;;;;;;;18.40;10.93;;;;;;;3.00;83.70;97197.13;4895326;29;20119;-73
2021/01/31 15:29:37;;;;;;;18.63;12.00;;;;;;;3.01;83.19;97193.69;4895302;29;20037;-73
2021/01/31 15:32:02;;;;;;;16.77;11.57;;;;;;;3.03;83.76;97191.97;4894640;29;20524;-73
2021/01/31 15:34:28;;;;;;;17.05;11.18;;;;;;;3.11;83.36;97189.31;4895273;29;20032;-73
2021/01/31 15:36:53;;;;;;;16.10;11.70;;;;;;;3.02;83.85;97180.03;4895291;29;20123;-73
2021/01/31 15:39:19;;;;;;;16.63;11.27;;;;;;;3.00;83.74;97181.78;4894962;29;20119;-73
2021/01/31 15:41:44;;;;;;;20.05;14.10;;;;;;;3.01;84.13;97186.03;4894363;29;20039;-73
2021/01/31 15:44:09;;;;;;;18.83;12.13;;;;;;;2.92;83.34;97192.09;4897278;29;20044;-72
2021/01/31 15:46:35;;;;;;;21.45;13.30;;;;;;;2.99;83.60;97187.75;4898449;29;20025;-71
2021/01/31 15:49:00;;;;;;;15.10;11.27;;;;;;;3.03;83.52;97191.97;4898715;29;20054;-72
2021/01/31 15:51:25;;;;;;;23.55;15.73;;;;;;;2.94;83.71;97192.06;4899621;29;20029;-74
2021/01/31 15:53:51;;;;;;;15.88;10.93;;;;;;;2.87;83.66;97186.22;4898533;29;20032;-70
2021/01/31 15:56:16;;;;;;;15.38;11.80;;;;;;;2.88;83.47;97187.06;4898620;29;20020;-69
2021/01/31 15:58:42;;;;;;;19.67;12.45;;;;;;;2.89;83.67;97188.72;4898588;29;20112;-72
2021/01/31 16:01:07;;;;;;;14.82;10.40;;;;;;;2.83;83.48;97187.94;4898263;29;20517;-75
2021/01/31 16:03:34;;;;;;;16.83;11.57;;;;;;;2.80;83.46;97182.91;4897739;29;20368;-70
2021/01/31 16:05:59;;;;;;;19.63;12.00;;;;;;;2.83;83.49;97185.41;4897962;29;20092;-73
2021/01/31 16:08:25;;;;;;;17.58;11.00;;;;;;;2.77;83.48;97184.63;4898129;29;20087;-74
2021/01/31 16:10:55;;;;;;;16.80;11.57;;;;;;;2.75;83.45;97187.19;4897459;29;20036;-73
2021/01/31 16:13:21;;;;;;;17.23;11.88;;;;;;;2.80;83.47;97185.44;4898431;29;20045;-73
2021/01/31 16:15:47;;;;;;;16.73;11.60;;;;;;;2.75;83.30;97187.19;4897748;29;20036;-73
2021/01/31 16:18:12;;;;;;;17.45;12.00;;;;;;;2.84;83.44;97184.53;4897748;29;20430;-73
2021/01/31 16:20:37;;;;;;;18.15;13.02;;;;;;;2.78;83.52;97186.31;4897338;29;20063;-74
2021/01/31 16:23:03;;;;;;;17.95;11.77;;;;;;;2.75;83.54;97184.63;4896923;29;20040;-73
2021/01/31 16:25:29;;;;;;;17.80;11.88;;;;;;;2.70;83.39;97183.84;4897779;29;20040;-70
2021/01/31 16:27:55;;;;;;;16.65;11.27;;;;;;;2.70;83.88;97183.84;4897532;29;20036;-72
2021/01/31 16:30:26;;;;;;;18.95;13.32;;;;;;;2.72;83.84;97182.13;4897820;29;20040;-73
2021/01/31 16:32:53;;;;;;;20.02;12.48;;;;;;;2.70;83.75;97178.75;4897918;29;21412;-72
2021/01/31 16:35:18;;;;;;;20.95;13.10;;;;;;;2.68;83.93;97180.47;4897158;29;20139;-71
2021/01/31 16:37:44;;;;;;;19.08;13.10;;;;;;;2.69;83.46;97177.06;4897305;29;20509;-69
2021/01/31 16:40:10;;;;;;;21.25;13.15;;;;;;;2.68;83.55;97167.69;4899301;29;20035;-70
2021/01/31 16:42:36;;;;;;;24.63;14.00;;;;;;;2.66;83.51;97176.22;4897167;29;20035;-75
2021/01/31 16:45:02;;;;;;;19.40;13.57;;;;;;;2.68;83.55;97175.38;4897110;29;20036;-75
2021/01/31 16:47:27;;;;;;;20.25;13.20;;;;;;;2.63;83.45;97177.13;4901798;29;20029;-74
2021/01/31 16:49:52;;;;;;;20.95;14.00;;;;;;;2.68;83.95;97175.38;4897864;29;20103;-74
2021/01/31 16:52:18;;;;;;;21.80;14.25;;;;;;;2.69;83.89;97171.09;4896897;29;20033;-75
2021/01/31 16:54:43;;;;;;;17.50;12.35;;;;;;;2.63;83.25;97171.19;4896860;29;20028;-75
2021/01/31 16:57:09;;;;;;;21.70;14.00;;;;;;;2.60;83.54;97177.16;4897250;29;20504;-74
2021/01/31 16:59:34;;;;;;;23.50;13.63;;;;;;;2.67;83.93;97158.34;4896614;29;20036;-74
2021/01/31 17:02:00;;;;;;;20.08;13.18;;;;;;;2.65;83.73;97161.78;4896875;29;20040;-75
2021/01/31 17:04:26;;;;;;;22.45;13.85;;;;;;;2.64;83.41;97158.38;4896561;29;20033;-75
2021/01/31 17:06:51;;;;;;;24.40;15.00;;;;;;;2.56;83.77;97162.72;4897200;29;20654;-74
2021/01/31 17:09:17;;;;;;;24.77;15.00;;;;;;;2.53;84.16;97152.56;4897230;29;20036;-74
2021/01/31 17:11:42;;;;;;;23.60;15.07;;;;;;;2.58;84.07;97150.78;4896551;29;20045;-74
2021/01/31 17:14:07;;;;;;;23.92;14.57;;;;;;;2.60;83.96;97146.50;4896145;29;20032;-75
2021/01/31 17:16:33;;;;;;;23.15;14.60;;;;;;;2.52;83.80;97146.59;4896692;29;20485;-74
2021/01/31 17:18:58;;;;;;;23.98;16.30;;;;;;;2.53;84.21;97150.00;4897239;29;20051;-74
2021/01/31 17:21:24;;;;;;;22.73;15.13;;;;;;;2.54;84.38;97144.84;4896723;29;20039;-74
2021/01/31 17:23:49;;;;;;;24.20;14.95;;;;;;;2.55;84.38;97143.16;4897069;29;20041;-74
2021/01/31 17:26:14;;;;;;;23.33;14.93;;;;;;;2.57;84.18;97129.50;4896733;29;20135;-74
2021/01/31 17:28:40;;;;;;;23.90;14.25;;;;;;;2.56;84.72;97132.03;4896493;29;21295;-74
2021/01/31 17:31:06;;;;;;;24.65;15.70;;;;;;;2.51;84.78;97136.38;4895689;29;20051;-74
2021/01/31 17:33:32;;;;;;;25.52;15.13;;;;;;;2.52;84.66;97122.75;4896112;29;20486;-74
2021/01/31 17:35:57;;;;;;;23.05;15.82;;;;;;;2.50;84.34;97120.19;4895212;29;20039;-74
2021/01/31 17:38:23;;;;;;;27.70;15.40;;;;;;;2.50;84.86;97114.25;4896275;29;20032;-74
2021/01/31 17:40:48;;;;;;;25.33;15.20;;;;;;;2.48;84.82;97116.00;4895461;29;20024;-74
2021/01/31 17:43:13;;;;;;;28.42;16.15;;;;;;;2.49;84.91;97118.50;4896732;29;20060;-74
2021/01/31 17:45:39;;;;;;;25.90;16.00;;;;;;;2.52;85.03;97112.53;4896468;29;20116;-74
2021/01/31 17:48:05;;;;;;;25.58;15.00;;;;;;;2.48;84.79;97116.00;4896112;29;20035;-74
2021/01/31 17:50:32;;;;;;;24.98;14.52;;;;;;;2.53;84.65;97104.84;4894425;29;20397;-74
2021/01/31 17:52:57;;;;;;;24.63;14.95;;;;;;;2.50;85.15;97116.78;4896553;29;20077;-74
2021/01/31 17:55:23;;;;;;;25.42;15.70;;;;;;;2.46;85.04;97115.97;4895148;29;20414;-74
2021/01/31 17:57:50;;;;;;;22.40;14.50;;;;;;;2.53;85.09;97114.22;4896447;29;20028;-74
2021/01/31 18:00:23;;;;;;;26.77;16.45;;;;;;;2.49;85.17;97108.28;4896305;29;20853;-74
2021/01/31 18:02:48;;;;;;;23.08;14.68;;;;;;;2.52;84.88;97102.31;4896195;29;20047;-74
2021/01/31 18:05:15;;;;;;;24.67;15.73;;;;;;;2.53;84.97;97098.88;4895176;29;20024;-74
2021/01/31 18:07:41;;;;;;;26.52;15.02;;;;;;;2.50;85.00;97098.91;4895846;29;20047;-74
2021/01/31 18:10:08;;;;;;;23.15;14.65;;;;;;;2.50;85.09;97098.91;4892816;29;20024;-74
2021/01/31 18:12:35;;;;;;;24.38;16.13;;;;;;;2.60;85.35;97104.75;4887940;29;20037;-74
2021/01/31 18:15:00;;;;;;;26.65;15.27;;;;;;;2.50;85.32;97094.63;4888310;29;20054;-74
2021/01/31 18:17:26;;;;;;;25.00;15.77;;;;;;;2.46;85.08;97097.25;4887021;29;20024;-74
2021/01/31 18:19:52;;;;;;;23.88;15.88;;;;;;;2.46;85.79;97087.88;4882777;29;20035;-74
2021/01/31 18:22:17;;;;;;;23.52;16.10;;;;;;;2.50;85.63;97098.91;4881027;29;20051;-74
2021/01/31 18:24:42;;;;;;;28.40;16.35;;;;;;;2.49;85.50;97092.09;4881809;29;20135;-74
2021/01/31 18:27:08;;;;;;;28.73;18.25;;;;;;;2.49;85.54;97089.56;4879730;29;20119;-74
2021/01/31 18:29:33;;;;;;;30.42;18.65;;;;;;;2.55;85.46;97092.03;4881122;29;20600;-74
2021/01/31 18:31:59;;;;;;;24.15;16.00;;;;;;;2.45;85.51;97090.44;4880558;29;20436;-74
2021/01/31 18:34:24;;;;;;;25.23;17.30;;;;;;;2.48;85.68;97090.44;4880812;29;20028;-74